sensor_id;sensor_type;location;lat;lon;timestamp;pressure;altitude;pressure_sealevel;temperature;humidity
64503;BME280;50971;51.940;21.258;2022-10-16T00:03:16;100736.38;;;13.66;100.00
64503;BME280;50971;51.940;21.258;2022-10-16T00:13:18;100737.39;;;13.62;100.00
64503;BME280;50971;51.940;21.258;2022-10-16T00:23:22;100745.20;;;13.65;100.00
64503;BME280;50971;51.940;21.258;2022-10-16T00:33:24;100740.03;;;13.56;100.00
64503;BME280;50971;51.940;21.258;2022-10-16T00:53:36;100734.29;;;13.48;100.00
64503;BME280;50971;51.940;21.258;2022-10-16T01:03:38;100743.75;;;13.46;100.00
64503;BME280;50971;51.940;21.258;2022-10-16T01:13:42;100758.98;;;13.40;100.00
64503;BME280;50971;51.940;21.258;2022-10-16T01:34:37;100762.89;;;13.35;100.00
64503;BME280;50971;51.940;21.258;2022-10-16T01:44:41;100765.91;;;13.37;100.00
64503;BME280;50971;51.940;21.258;2022-10-16T01:54:47;100787.93;;;13.31;100.00
64503;BME280;50971;51.940;21.258;2022-10-16T02:04:58;100792.67;;;13.23;100.00
64503;BME280;50971;51.940;21.258;2022-10-16T02:15:03;100790.77;;;13.32;100.00
64503;BME280;50971;51.940;21.258;2022-10-16T02:25:13;100789.74;;;13.45;100.00
64503;BME280;50971;51.940;21.258;2022-10-16T02:35:18;100774.79;;;13.34;100.00
64503;BME280;50971;51.940;21.258;2022-10-16T02:45:22;100770.55;;;13.25;100.00
64503;BME280;50971;51.940;21.258;2022-10-16T02:55:25;100781.33;;;13.30;100.00
64503;BME280;50971;51.940;21.258;2022-10-16T03:05:28;100793.65;;;13.24;100.00
64503;BME280;50971;51.940;21.258;2022-10-16T03:15:30;100796.88;;;13.30;100.00
64503;BME280;50971;51.940;21.258;2022-10-16T03:25:32;100807.11;;;13.39;100.00
64503;BME280;50971;51.940;21.258;2022-10-16T03:35:34;100815.20;;;13.33;100.00
64503;BME280;50971;51.940;21.258;2022-10-16T03:45:36;100823.45;;;13.22;100.00
64503;BME280;50971;51.940;21.258;2022-10-16T03:55:38;100832.41;;;13.24;100.00
64503;BME280;50971;51.940;21.258;2022-10-16T04:05:40;100828.37;;;13.14;100.00
64503;BME280;50971;51.940;21.258;2022-10-16T04:15:42;100831.58;;;13.13;100.00
64503;BME280;50971;51.940;21.258;2022-10-16T04:25:44;100836.25;;;13.06;100.00
64503;BME280;50971;51.940;21.258;2022-10-16T04:35:46;100842.27;;;13.03;100.00
64503;BME280;50971;51.940;21.258;2022-10-16T04:45:48;100850.02;;;12.97;100.00
64503;BME280;50971;51.940;21.258;2022-10-16T04:55:52;100861.17;;;12.76;100.00
64503;BME280;50971;51.940;21.258;2022-10-16T05:05:54;100859.05;;;12.53;100.00
64503;BME280;50971;51.940;21.258;2022-10-16T05:15:56;100877.60;;;12.59;100.00
64503;BME280;50971;51.940;21.258;2022-10-16T05:25:59;100882.95;;;12.74;100.00
64503;BME280;50971;51.940;21.258;2022-10-16T05:36:06;100888.19;;;12.66;100.00
64503;BME280;50971;51.940;21.258;2022-10-16T05:46:09;100890.51;;;12.82;100.00
64503;BME280;50971;51.940;21.258;2022-10-16T05:56:11;100902.98;;;13.08;100.00
64503;BME280;50971;51.940;21.258;2022-10-16T06:06:16;100904.19;;;13.13;100.00
64503;BME280;50971;51.940;21.258;2022-10-16T06:16:19;100905.00;;;13.30;100.00
64503;BME280;50971;51.940;21.258;2022-10-16T06:26:24;100916.95;;;13.53;100.00
64503;BME280;50971;51.940;21.258;2022-10-16T06:36:29;100927.50;;;13.32;100.00
64503;BME280;50971;51.940;21.258;2022-10-16T06:46:32;100941.08;;;13.29;100.00
64503;BME280;50971;51.940;21.258;2022-10-16T06:56:34;100942.70;;;13.64;100.00
64503;BME280;50971;51.940;21.258;2022-10-16T07:06:36;100955.09;;;13.97;100.00
64503;BME280;50971;51.940;21.258;2022-10-16T07:16:38;100967.21;;;14.35;100.00
64503;BME280;50971;51.940;21.258;2022-10-16T07:26:44;100971.45;;;15.06;100.00
64503;BME280;50971;51.940;21.258;2022-10-16T07:36:51;100983.94;;;15.75;100.00
64503;BME280;50971;51.940;21.258;2022-10-16T07:46:53;100986.83;;;16.50;100.00
64503;BME280;50971;51.940;21.258;2022-10-16T07:56:55;100992.14;;;17.02;100.00
64503;BME280;50971;51.940;21.258;2022-10-16T08:06:57;100950.36;;;17.06;99.62
64503;BME280;50971;51.940;21.258;2022-10-16T08:16:59;100975.54;;;16.90;99.78
64503;BME280;50971;51.940;21.258;2022-10-16T08:27:03;100988.17;;;16.87;100.00
64503;BME280;50971;51.940;21.258;2022-10-16T08:37:05;100995.88;;;16.99;99.80
64503;BME280;50971;51.940;21.258;2022-10-16T08:47:20;100998.33;;;17.30;98.89
64503;BME280;50971;51.940;21.258;2022-10-16T08:57:25;101002.14;;;18.02;97.31
64503;BME280;50971;51.940;21.258;2022-10-16T09:28:33;101017.27;;;22.40;76.55
64503;BME280;50971;51.940;21.258;2022-10-16T09:38:36;101021.67;;;22.37;77.31
64503;BME280;50971;51.940;21.258;2022-10-16T09:48:48;101012.45;;;22.18;74.40
64503;BME280;50971;51.940;21.258;2022-10-16T09:58:53;100999.52;;;22.25;75.54
64503;BME280;50971;51.940;21.258;2022-10-16T10:09:14;100983.86;;;22.34;74.25
64503;BME280;50971;51.940;21.258;2022-10-16T10:19:18;100988.99;;;22.21;73.82
64503;BME280;50971;51.940;21.258;2022-10-16T10:50:18;100980.77;;;21.93;71.72
64503;BME280;50971;51.940;21.258;2022-10-16T11:10:38;100968.34;;;21.63;71.76
64503;BME280;50971;51.940;21.258;2022-10-16T11:30:57;100969.98;;;21.88;70.29
64503;BME280;50971;51.940;21.258;2022-10-16T11:41:31;100972.63;;;22.14;70.32
64503;BME280;50971;51.940;21.258;2022-10-16T12:11:43;100986.37;;;21.73;69.71
64503;BME280;50971;51.940;21.258;2022-10-16T12:21:45;100971.55;;;21.37;71.21
64503;BME280;50971;51.940;21.258;2022-10-16T12:31:48;100964.70;;;20.92;72.73
64503;BME280;50971;51.940;21.258;2022-10-16T12:42:05;100963.98;;;20.52;74.53
64503;BME280;50971;51.940;21.258;2022-10-16T12:52:37;100968.52;;;20.24;75.87
64503;BME280;50971;51.940;21.258;2022-10-16T13:34:19;100989.77;;;21.64;73.47
64503;BME280;50971;51.940;21.258;2022-10-16T13:44:22;100997.23;;;21.40;73.65
64503;BME280;50971;51.940;21.258;2022-10-16T13:54:28;101004.81;;;21.12;75.21
64503;BME280;50971;51.940;21.258;2022-10-16T14:04:33;101012.67;;;20.84;76.14
64503;BME280;50971;51.940;21.258;2022-10-16T14:14:50;101019.39;;;20.59;77.43
64503;BME280;50971;51.940;21.258;2022-10-16T14:24:53;101021.14;;;20.34;79.53
64503;BME280;50971;51.940;21.258;2022-10-16T14:34:55;101017.85;;;20.03;81.62
64503;BME280;50971;51.940;21.258;2022-10-16T14:44:57;101022.84;;;19.76;82.68
64503;BME280;50971;51.940;21.258;2022-10-16T14:55:00;101033.14;;;19.47;84.92
64503;BME280;50971;51.940;21.258;2022-10-16T15:05:23;101043.10;;;19.39;87.32
64503;BME280;50971;51.940;21.258;2022-10-16T15:15:46;101037.98;;;19.32;90.62
64503;BME280;50971;51.940;21.258;2022-10-16T15:25:51;101039.45;;;18.91;93.10
64503;BME280;50971;51.940;21.258;2022-10-16T15:35:55;101039.02;;;18.27;94.58
64503;BME280;50971;51.940;21.258;2022-10-16T15:46:05;101051.69;;;17.54;97.82
64503;BME280;50971;51.940;21.258;2022-10-16T15:56:12;101060.40;;;16.97;100.00
64503;BME280;50971;51.940;21.258;2022-10-16T16:06:16;101073.95;;;16.57;100.00
64503;BME280;50971;51.940;21.258;2022-10-16T16:16:19;101086.92;;;16.38;100.00
64503;BME280;50971;51.940;21.258;2022-10-16T16:26:27;101095.30;;;16.32;100.00
64503;BME280;50971;51.940;21.258;2022-10-16T16:36:32;101102.02;;;16.36;100.00
64503;BME280;50971;51.940;21.258;2022-10-16T16:46:35;101107.55;;;16.46;100.00
64503;BME280;50971;51.940;21.258;2022-10-16T16:56:38;101121.80;;;16.42;100.00
64503;BME280;50971;51.940;21.258;2022-10-16T17:06:41;101132.12;;;16.29;100.00
64503;BME280;50971;51.940;21.258;2022-10-16T17:16:43;101145.34;;;16.22;100.00
64503;BME280;50971;51.940;21.258;2022-10-16T17:26:47;101150.94;;;16.19;100.00
64503;BME280;50971;51.940;21.258;2022-10-16T17:36:50;101152.25;;;16.03;100.00
64503;BME280;50971;51.940;21.258;2022-10-16T17:46:53;101169.33;;;15.81;100.00
64503;BME280;50971;51.940;21.258;2022-10-16T17:56:57;101176.48;;;15.62;100.00
64503;BME280;50971;51.940;21.258;2022-10-16T18:06:59;101189.69;;;15.40;100.00
64503;BME280;50971;51.940;21.258;2022-10-16T18:17:01;101207.75;;;15.31;100.00
64503;BME280;50971;51.940;21.258;2022-10-16T18:27:04;101218.04;;;15.27;100.00
64503;BME280;50971;51.940;21.258;2022-10-16T18:37:08;101232.46;;;15.17;100.00
64503;BME280;50971;51.940;21.258;2022-10-16T18:47:11;101243.23;;;15.16;100.00
64503;BME280;50971;51.940;21.258;2022-10-16T18:57:14;101252.87;;;15.30;100.00
64503;BME280;50971;51.940;21.258;2022-10-16T19:07:18;101257.24;;;15.40;100.00
64503;BME280;50971;51.940;21.258;2022-10-16T19:17:21;101264.12;;;15.35;100.00
64503;BME280;50971;51.940;21.258;2022-10-16T19:27:23;101274.86;;;14.95;100.00
64503;BME280;50971;51.940;21.258;2022-10-16T19:37:25;101275.80;;;14.47;100.00
64503;BME280;50971;51.940;21.258;2022-10-16T19:47:28;101286.46;;;14.16;100.00
64503;BME280;50971;51.940;21.258;2022-10-16T19:57:33;101294.22;;;14.02;100.00
64503;BME280;50971;51.940;21.258;2022-10-16T20:07:41;101300.64;;;14.00;100.00
64503;BME280;50971;51.940;21.258;2022-10-16T20:17:43;101309.30;;;14.09;100.00
64503;BME280;50971;51.940;21.258;2022-10-16T20:27:45;101323.33;;;14.02;100.00
64503;BME280;50971;51.940;21.258;2022-10-16T20:37:48;101339.29;;;13.84;100.00
64503;BME280;50971;51.940;21.258;2022-10-16T20:47:50;101353.66;;;13.47;100.00
64503;BME280;50971;51.940;21.258;2022-10-16T20:57:52;101369.25;;;13.27;100.00
64503;BME280;50971;51.940;21.258;2022-10-16T21:07:55;101370.66;;;13.20;100.00
64503;BME280;50971;51.940;21.258;2022-10-16T21:17:57;101377.61;;;13.10;100.00
64503;BME280;50971;51.940;21.258;2022-10-16T21:27:58;101385.98;;;12.96;100.00
64503;BME280;50971;51.940;21.258;2022-10-16T21:38:01;101387.45;;;12.71;100.00
64503;BME280;50971;51.940;21.258;2022-10-16T21:48:04;101394.66;;;12.46;100.00
64503;BME280;50971;51.940;21.258;2022-10-16T21:58:06;101404.02;;;12.34;100.00
64503;BME280;50971;51.940;21.258;2022-10-16T22:08:08;101406.45;;;12.30;100.00
64503;BME280;50971;51.940;21.258;2022-10-16T22:18:10;101412.39;;;12.28;100.00
64503;BME280;50971;51.940;21.258;2022-10-16T22:28:12;101416.57;;;12.28;100.00
64503;BME280;50971;51.940;21.258;2022-10-16T22:38:14;101418.15;;;12.24;100.00
64503;BME280;50971;51.940;21.258;2022-10-16T22:48:17;101433.20;;;12.04;100.00
64503;BME280;50971;51.940;21.258;2022-10-16T22:58:19;101443.87;;;11.81;100.00
64503;BME280;50971;51.940;21.258;2022-10-16T23:08:21;101459.33;;;11.73;100.00
64503;BME280;50971;51.940;21.258;2022-10-16T23:18:23;101470.01;;;11.75;100.00
64503;BME280;50971;51.940;21.258;2022-10-16T23:28:25;101474.21;;;11.77;100.00
64503;BME280;50971;51.940;21.258;2022-10-16T23:38:28;101478.05;;;11.67;100.00
64503;BME280;50971;51.940;21.258;2022-10-16T23:48:30;101489.89;;;11.59;100.00
64503;BME280;50971;51.940;21.258;2022-10-16T23:58:32;101505.02;;;11.61;100.00
